Station Historical Data
Daily Summary for February 23, 2017 Units:  English    Metric   Both
Next Day »
Daily Weekly Monthly Yearly Custom
  High: Low: Average:
Temperature: 37.3 °F 29.4 °F 32.3 °F
Dew Point: 34.4 °F 27.6 °F 30.1 °F
Humidity: 94% 82% 92%
Wind Speed: 7.0mph 0.0mph 0.3mph
Wind Gust: 14.0mph - -
Wind- - SSW
Pressure: 30.30 in 30.19 in -
Precipitation: 0.00 in    
Historical Graphs
 
 
Tabular Data for February 23, 2017
Time Temperature Dew Point Pressure Wind Wind Speed Wind Gust Humidity Rainfall Rate (Hourly) solar Conditions
00:03 32.6 °F 31.1 °F 30.19 in Calm     94% 0.00 in 0.00 W/m2
00:08 32.6 °F 31.1 °F 30.20 in Calm     94% 0.00 in 0.00 W/m2
00:13 32.6 °F 31.1 °F 30.20 in Calm     94% 0.00 in 0.00 W/m2
00:18 32.7 °F 31.2 °F 30.20 in Calm     94% 0.00 in 0.00 W/m2
00:23 32.7 °F 31.2 °F 30.20 in Calm     94% 0.00 in 0.00 W/m2
00:28 32.7 °F 31.2 °F 30.20 in Calm     94% 0.00 in 0.00 W/m2
00:33 32.8 °F 31.3 °F 30.20 in Calm     94% 0.00 in 0.00 W/m2
00:38 32.8 °F 31.3 °F 30.20 in Calm     94% 0.00 in 0.00 W/m2
00:44 32.9 °F 31.4 °F 30.20 in Calm     94% 0.00 in 0.00 W/m2
00:49 32.9 °F 31.4 °F 30.20 in Calm     94% 0.00 in 0.00 W/m2
00:54 32.9 °F 31.4 °F 30.20 in Calm     94% 0.00 in 0.00 W/m2
00:59 32.9 °F 31.4 °F 30.20 in Calm     94% 0.00 in 0.00 W/m2
01:04 33.0 °F 31.5 °F 30.20 in Calm     94% 0.00 in 0.00 W/m2
01:09 33.0 °F 31.5 °F 30.20 in Calm     94% 0.00 in 0.00 W/m2
01:14 32.9 °F 31.4 °F 30.20 in Calm     94% 0.00 in 0.00 W/m2
01:19 32.9 °F 31.4 °F 30.20 in Calm     94% 0.00 in 0.00 W/m2
01:24 32.9 °F 31.4 °F 30.20 in Calm     94% 0.00 in 0.00 W/m2
01:29 32.9 °F 31.4 °F 30.20 in Calm     94% 0.00 in 0.00 W/m2
01:34 32.8 °F 31.3 °F 30.20 in Calm     94% 0.00 in 0.00 W/m2
01:39 32.8 °F 31.3 °F 30.20 in Calm     94% 0.00 in 0.00 W/m2
01:44 32.7 °F 31.2 °F 30.19 in Calm     94% 0.00 in 0.00 W/m2
01:49 32.7 °F 31.2 °F 30.20 in Calm     94% 0.00 in 0.00 W/m2
01:54 32.6 °F 31.1 °F 30.19 in Calm     94% 0.00 in 0.00 W/m2
01:59 32.6 °F 31.1 °F 30.20 in Calm     94% 0.00 in 0.00 W/m2
02:04 32.6 °F 31.1 °F 30.20 in Calm     94% 0.00 in 0.00 W/m2
02:09 32.5 °F 31.0 °F 30.20 in Calm     94% 0.00 in 0.00 W/m2
02:14 32.4 °F 30.9 °F 30.20 in Calm     94% 0.00 in 0.00 W/m2
02:19 32.3 °F 30.8 °F 30.20 in Calm     94% 0.00 in 0.00 W/m2
02:24 32.3 °F 30.8 °F 30.20 in Calm     94% 0.00 in 0.00 W/m2
02:29 32.3 °F 30.8 °F 30.20 in Calm     94% 0.00 in 0.00 W/m2
02:34 32.3 °F 30.8 °F 30.20 in Calm     94% 0.00 in 0.00 W/m2
02:39 32.3 °F 30.8 °F 30.20 in Calm     94% 0.00 in 0.00 W/m2
02:44 32.3 °F 30.8 °F 30.20 in Calm     94% 0.00 in 0.00 W/m2
02:49 32.3 °F 30.8 °F 30.20 in Calm     94% 0.00 in 0.00 W/m2
02:54 32.2 °F 30.7 °F 30.20 in Calm     94% 0.00 in 0.00 W/m2
02:59 31.9 °F 30.4 °F 30.20 in Calm     94% 0.00 in 0.00 W/m2
03:04 31.6 °F 30.1 °F 30.20 in Calm     94% 0.00 in 0.00 W/m2
03:09 31.5 °F 30.0 °F 30.20 in Calm     94% 0.00 in 0.00 W/m2
03:14 31.4 °F 29.9 °F 30.20 in Calm     94% 0.00 in 0.00 W/m2
03:19 31.3 °F 29.8 °F 30.20 in Calm     94% 0.00 in 0.00 W/m2
03:24 31.3 °F 29.8 °F 30.20 in Calm     94% 0.00 in 0.00 W/m2
03:29 31.3 °F 29.8 °F 30.20 in Calm     94% 0.00 in 0.00 W/m2
03:34 31.4 °F 29.9 °F 30.20 in Calm     94% 0.00 in 0.00 W/m2
03:39 31.4 °F 29.9 °F 30.19 in Calm     94% 0.00 in 0.00 W/m2
03:44 31.4 °F 29.9 °F 30.19 in Calm     94% 0.00 in 0.00 W/m2
03:49 31.3 °F 29.8 °F 30.19 in Calm     94% 0.00 in 0.00 W/m2
03:54 31.2 °F 29.7 °F 30.19 in Calm     94% 0.00 in 0.00 W/m2
03:59 31.1 °F 29.3 °F 30.19 in Calm     93% 0.00 in 0.00 W/m2
04:04 31.0 °F 29.5 °F 30.19 in Calm     94% 0.00 in 0.00 W/m2
04:09 30.9 °F 29.4 °F 30.19 in Calm     94% 0.00 in 0.00 W/m2
04:14 30.8 °F 29.3 °F 30.19 in Calm     94% 0.00 in 0.00 W/m2
04:19 30.8 °F 29.3 °F 30.19 in Calm     94% 0.00 in 0.00 W/m2
04:24 30.7 °F 28.9 °F 30.19 in Calm     93% 0.00 in 0.00 W/m2
04:29 30.6 °F 28.8 °F 30.19 in Calm     93% 0.00 in 0.00 W/m2
04:34 30.5 °F 28.7 °F 30.19 in Calm     93% 0.00 in 0.00 W/m2
04:39 30.4 °F 28.9 °F 30.20 in Calm     94% 0.00 in 0.00 W/m2
04:44 30.3 °F 28.8 °F 30.20 in Calm     94% 0.00 in 0.00 W/m2
04:49 30.3 °F 28.8 °F 30.20 in Calm     94% 0.00 in 0.00 W/m2
04:54 30.2 °F 28.7 °F 30.20 in Calm     94% 0.00 in 0.00 W/m2
04:59 30.2 °F 28.7 °F 30.20 in Calm     94% 0.00 in 0.00 W/m2
05:04 30.1 °F 28.6 °F 30.20 in Calm     94% 0.00 in 0.00 W/m2
05:09 30.1 °F 28.6 °F 30.20 in Calm     94% 0.00 in 0.00 W/m2
05:10 30.1 °F 28.3 °F 30.20 in Calm     93% 0.00 in 0.00 W/m2
05:15 29.9 °F 28.1 °F 30.20 in Calm     93% 0.00 in 0.00 W/m2
05:20 29.9 °F 28.1 °F 30.20 in Calm     93% 0.00 in 0.00 W/m2
05:25 29.9 °F 28.1 °F 30.20 in Calm     93% 0.00 in 0.00 W/m2
05:30 29.8 °F 28.0 °F 30.20 in Calm     93% 0.00 in 0.00 W/m2
05:35 29.7 °F 27.9 °F 30.20 in Calm     93% 0.00 in 0.00 W/m2
05:40 29.6 °F 27.8 °F 30.20 in Calm     93% 0.00 in 0.00 W/m2
05:45 29.6 °F 27.8 °F 30.20 in Calm     93% 0.00 in 0.00 W/m2
05:50 29.6 °F 27.8 °F 30.21 in Calm     93% 0.00 in 0.00 W/m2
05:55 29.6 °F 27.8 °F 30.21 in Calm     93% 0.00 in 0.00 W/m2
06:00 29.7 °F 27.9 °F 30.21 in Calm     93% 0.00 in 0.00 W/m2
06:05 29.7 °F 27.9 °F 30.21 in Calm     93% 0.00 in 0.00 W/m2
06:10 29.6 °F 27.8 °F 30.21 in Calm     93% 0.00 in 0.00 W/m2
06:15 29.6 °F 27.8 °F 30.21 in Calm     93% 0.00 in 0.00 W/m2
06:20 29.6 °F 27.8 °F 30.21 in Calm     93% 0.00 in 0.00 W/m2
06:25 29.5 °F 27.7 °F 30.22 in Calm     93% 0.00 in 0.00 W/m2
06:30 29.5 °F 27.7 °F 30.22 in Calm     93% 0.00 in 0.00 W/m2
06:35 29.4 °F 27.6 °F 30.22 in Calm     93% 0.17 in 0.00 W/m2
06:40 29.4 °F 27.6 °F 30.22 in Calm     93% 0.13 in 0.00 W/m2
06:45 29.4 °F 27.6 °F 30.22 in Calm     93% 0.15 in 0.00 W/m2
06:50 29.4 °F 27.6 °F 30.22 in Calm     93% 0.12 in 0.00 W/m2
06:55 29.4 °F 27.6 °F 30.22 in Calm     93% 0.14 in 5.00 W/m2
07:00 29.4 °F 27.6 °F 30.23 in Calm     93% 0.12 in 5.00 W/m2
07:05 29.4 °F 27.6 °F 30.23 in Calm     93% 0.08 in 5.00 W/m2
07:10 29.5 °F 27.7 °F 30.23 in Calm     93% 0.08 in 11.00 W/m2
07:15 29.6 °F 27.8 °F 30.23 in Calm     93% 0.05 in 11.00 W/m2
07:20 29.7 °F 27.9 °F 30.24 in Calm     93% 0.04 in 12.00 W/m2
07:25 29.9 °F 28.1 °F 30.24 in Calm     93% 0.00 in 16.00 W/m2
07:30 29.9 °F 28.1 °F 30.24 in Calm     93% 0.00 in 18.00 W/m2
07:35 30.1 °F 28.3 °F 30.24 in Calm     93% 0.00 in 21.00 W/m2
07:40 30.2 °F 28.7 °F 30.25 in Calm     94% 0.00 in 21.00 W/m2
07:45 30.3 °F 28.5 °F 30.25 in Calm     93% 0.00 in 26.00 W/m2
07:50 30.4 °F 28.6 °F 30.25 in Calm     93% 0.00 in 30.00 W/m2
07:55 30.4 °F 28.6 °F 30.25 in Calm     93% 0.00 in 33.00 W/m2
08:00 30.5 °F 28.7 °F 30.25 in Calm     93% 0.00 in 37.00 W/m2
08:05 30.6 °F 29.1 °F 30.25 in Calm     94% 0.00 in 47.00 W/m2
08:10 30.6 °F 29.1 °F 30.25 in Calm     94% 0.00 in 58.00 W/m2
08:15 30.8 °F 29.3 °F 30.25 in Calm     94% 0.00 in 70.00 W/m2
08:20 30.8 °F 29.3 °F 30.26 in Calm     94% 0.00 in 76.00 W/m2
08:25 30.9 °F 29.1 °F 30.26 in Calm     93% 0.00 in 91.00 W/m2
08:30 31.0 °F 29.2 °F 30.26 in Calm     93% 0.00 in 139.00 W/m2
08:35 31.0 °F 29.2 °F 30.26 in Calm     93% 0.00 in 121.00 W/m2
08:40 31.0 °F 29.2 °F 30.26 in Calm     93% 0.00 in 450.00 W/m2
08:45 31.0 °F 29.2 °F 30.27 in Calm     93% 0.00 in 214.00 W/m2
08:50 31.1 °F 29.3 °F 30.27 in Calm     93% 0.00 in 202.00 W/m2
08:55 31.2 °F 29.7 °F 30.27 in Calm     94% 0.00 in 241.00 W/m2
09:00 31.3 °F 29.8 °F 30.27 in Calm     94% 0.00 in 257.00 W/m2
09:05 31.4 °F 29.9 °F 30.27 in Calm     94% 0.00 in 297.00 W/m2
09:10 31.5 °F 29.7 °F 30.27 in Calm     93% 0.00 in 299.00 W/m2
09:15 31.6 °F 29.8 °F 30.27 in Calm     93% 0.00 in 313.00 W/m2
09:20 31.6 °F 29.8 °F 30.27 in Calm     93% 0.00 in 295.00 W/m2
09:25 31.7 °F 29.9 °F 30.27 in Calm     93% 0.00 in 207.00 W/m2
09:30 31.7 °F 29.9 °F 30.27 in Calm     93% 0.00 in 192.00 W/m2
09:35 31.7 °F 29.9 °F 30.27 in Calm     93% 0.00 in 128.00 W/m2
09:40 31.7 °F 29.9 °F 30.27 in Calm     93% 0.00 in 174.00 W/m2
09:45 31.6 °F 29.8 °F 30.27 in Calm     93% 0.00 in 142.00 W/m2
09:50 31.7 °F 29.9 °F 30.27 in Calm     93% 0.00 in 381.00 W/m2
09:55 31.8 °F 30.0 °F 30.28 in Calm     93% 0.00 in 323.00 W/m2
10:00 31.8 °F 30.0 °F 30.28 in Calm     93% 0.00 in 336.00 W/m2
10:05 31.8 °F 30.0 °F 30.28 in Calm     93% 0.00 in 788.00 W/m2
10:10 31.9 °F 30.1 °F 30.28 in Calm     93% 0.00 in 221.00 W/m2
10:15 32.1 °F 30.3 °F 30.28 in Calm     93% 0.00 in 146.00 W/m2
10:20 32.2 °F 30.4 °F 30.28 in Calm     93% 0.00 in 116.00 W/m2
10:25 32.2 °F 30.4 °F 30.28 in Calm     93% 0.00 in 97.00 W/m2
10:30 32.1 °F 30.3 °F 30.28 in Calm     93% 0.00 in 58.00 W/m2
10:35 32.1 °F 30.3 °F 30.28 in Calm     93% 0.00 in 60.00 W/m2
10:40 32.1 °F 30.3 °F 30.28 in Calm     93% 0.00 in 69.00 W/m2
10:45 32.1 °F 30.3 °F 30.28 in Calm     93% 0.00 in 95.00 W/m2
10:50 32.2 °F 30.4 °F 30.28 in Calm     93% 0.00 in 687.00 W/m2
10:55 32.2 °F 30.4 °F 30.28 in Calm     93% 0.00 in 710.00 W/m2
11:00 32.4 °F 30.3 °F 30.28 in Calm     92% 0.00 in 752.00 W/m2
11:05 32.7 °F 30.6 °F 30.27 in Calm     92% 0.00 in 789.00 W/m2
11:10 32.9 °F 30.8 °F 30.27 in Calm     92% 0.00 in 258.00 W/m2
11:15 33.1 °F 31.3 °F 30.27 in Calm     93% 0.00 in 195.00 W/m2
11:20 33.2 °F 31.4 °F 30.27 in Calm     93% 0.00 in 163.00 W/m2
11:25 33.2 °F 31.1 °F 30.27 in Calm     92% 0.00 in 795.00 W/m2
11:30 33.3 °F 31.2 °F 30.27 in Calm     92% 0.00 in 244.00 W/m2
11:35 33.5 °F 31.4 °F 30.27 in Calm     92% 0.00 in 851.00 W/m2
11:40 33.6 °F 31.8 °F 30.27 in Calm     93% 0.00 in 264.00 W/m2
11:45 33.7 °F 31.9 °F 30.27 in Calm     93% 0.00 in 313.00 W/m2
11:50 33.8 °F 31.7 °F 30.26 in Calm     92% 0.00 in 330.00 W/m2
11:55 33.8 °F 31.7 °F 30.26 in Calm     92% 0.00 in 309.00 W/m2
12:00 34.0 °F 31.9 °F 30.26 in Calm     92% 0.00 in 272.00 W/m2
12:05 33.9 °F 31.6 °F 30.26 in Calm     91% 0.00 in 886.00 W/m2
12:10 34.0 °F 31.6 °F 30.26 in Calm     91% 0.00 in 849.00 W/m2
12:15 34.4 °F 32.0 °F 30.26 in WNW 4.0 mph 7.0 mph 91% 0.00 in 805.00 W/m2
12:20 34.5 °F 32.2 °F 30.25 in WNW 3.0 mph 4.0 mph 91% 0.00 in 789.00 W/m2
12:25 34.6 °F 32.0 °F 30.25 in NW 2.0 mph 6.0 mph 90% 0.00 in 788.00 W/m2
12:30 34.8 °F 32.2 °F 30.25 in WNW 2.0 mph 4.0 mph 90% 0.00 in 788.00 W/m2
12:35 35.0 °F 32.4 °F 30.25 in Calm   3.0 mph 90% 0.00 in 796.00 W/m2
12:40 35.2 °F 32.6 °F 30.25 in West 1.0 mph 5.0 mph 90% 0.00 in 853.00 W/m2
12:45 35.3 °F 32.7 °F 30.25 in WNW 2.0 mph 4.0 mph 90% 0.00 in 121.00 W/m2
12:50 35.3 °F 32.7 °F 30.25 in WNW 1.0 mph 3.0 mph 90% 0.00 in 118.00 W/m2
12:55 35.2 °F 32.6 °F 30.25 in Calm   6.0 mph 90% 0.00 in 791.00 W/m2
13:00 35.2 °F 32.3 °F 30.25 in Calm   5.0 mph 89% 0.00 in 788.00 W/m2
13:05 35.5 °F 32.6 °F 30.25 in West 4.0 mph 7.0 mph 89% 0.00 in 773.00 W/m2
13:10 35.6 °F 32.4 °F 30.24 in Calm   11.0 mph 88% 0.00 in 751.00 W/m2
13:16 36.0 °F 32.8 °F 30.24 in West 2.0 mph 8.0 mph 88% 0.00 in 740.00 W/m2
13:17 36.1 °F 32.9 °F 30.24 in WNW 3.0 mph 12.0 mph 88% 0.00 in 786.00 W/m2
13:22 36.2 °F 32.4 °F 30.24 in Calm   1.0 mph 86% 0.00 in 290.00 W/m2
13:28 36.3 °F 32.8 °F 30.24 in WSW 3.0 mph 7.0 mph 87% 0.00 in 824.00 W/m2
13:33 36.5 °F 33.0 °F 30.24 in SW 7.0 mph 12.0 mph 87% 0.00 in 812.00 W/m2
13:38 36.8 °F 33.6 °F 30.24 in Calm   2.0 mph 88% 0.00 in 761.00 W/m2
13:43 36.9 °F 33.1 °F 30.23 in WSW 1.0 mph 4.0 mph 86% 0.00 in 207.00 W/m2
13:48 37.0 °F 33.5 °F 30.23 in Calm   2.0 mph 87% 0.00 in 868.00 W/m2
13:53 37.3 °F 34.4 °F 30.23 in Calm   1.0 mph 89% 0.00 in 200.00 W/m2
13:58 37.3 °F 33.8 °F 30.23 in Calm   5.0 mph 87% 0.00 in 155.00 W/m2
14:03 37.1 °F 33.0 °F 30.23 in Calm   1.0 mph 85% 0.00 in 151.00 W/m2
14:08 37.0 °F 32.9 °F 30.23 in Calm   1.0 mph 85% 0.00 in 158.00 W/m2
14:13 36.8 °F 33.0 °F 30.23 in Calm   1.0 mph 86% 0.00 in 178.00 W/m2
14:18 36.6 °F 32.8 °F 30.23 in Calm   1.0 mph 86% 0.00 in 738.00 W/m2
14:23 36.6 °F 32.8 °F 30.23 in NW 1.0 mph 10.0 mph 86% 0.00 in 211.00 W/m2
14:28 36.8 °F 32.4 °F 30.23 in Calm   9.0 mph 84% 0.00 in 809.00 W/m2
14:33 36.9 °F 32.2 °F 30.23 in NW 1.0 mph 8.0 mph 83% 0.00 in 185.00 W/m2
14:38 37.2 °F 32.2 °F 30.23 in NNW 1.0 mph 14.0 mph 82% 0.00 in 186.00 W/m2
14:43 37.2 °F 32.5 °F 30.24 in North 1.0 mph 14.0 mph 83% 0.00 in 213.00 W/m2
14:48 36.8 °F 32.7 °F 30.24 in Calm   9.0 mph 85% 0.00 in 149.00 W/m2
14:53 36.1 °F 32.3 °F 30.24 in Calm   11.0 mph 86% 0.00 in 181.00 W/m2
14:58 35.7 °F 32.2 °F 30.24 in NNE 7.0 mph 11.0 mph 87% 0.00 in 225.00 W/m2
15:03 35.2 °F 32.0 °F 30.25 in NNE 4.0 mph 10.0 mph 88% 0.00 in 197.00 W/m2
15:08 34.9 °F 32.0 °F 30.25 in NNE 3.0 mph 3.0 mph 89% 0.00 in 248.00 W/m2
15:13 34.7 °F 31.8 °F 30.25 in Calm   10.0 mph 89% 0.00 in 364.00 W/m2
15:18 34.6 °F 32.0 °F 30.25 in NE 5.0 mph 7.0 mph 90% 0.00 in 185.00 W/m2
15:23 34.4 °F 31.5 °F 30.25 in ENE 1.0 mph 11.0 mph 89% 0.00 in 218.00 W/m2
15:28 34.3 °F 31.4 °F 30.25 in Calm   1.0 mph 89% 0.00 in 587.00 W/m2
15:33 34.4 °F 31.8 °F 30.25 in NE 1.0 mph 1.0 mph 90% 0.00 in 403.00 W/m2
15:38 34.6 °F 31.7 °F 30.25 in Calm   3.0 mph 89% 0.00 in 459.00 W/m2
15:43 34.7 °F 31.8 °F 30.25 in Calm   1.0 mph 89% 0.00 in 394.00 W/m2
15:48 34.7 °F 31.5 °F 30.25 in Calm   1.0 mph 88% 0.00 in 364.00 W/m2
15:53 34.8 °F 31.9 °F 30.25 in Calm   1.0 mph 89% 0.00 in 345.00 W/m2
15:58 34.9 °F 31.7 °F 30.25 in NE 1.0 mph 1.0 mph 88% 0.00 in 343.00 W/m2
16:03 35.0 °F 32.1 °F 30.25 in Calm   1.0 mph 89% 0.00 in 179.00 W/m2
16:08 35.1 °F 31.9 °F 30.25 in Calm   1.0 mph 88% 0.00 in 322.00 W/m2
16:13 35.1 °F 31.9 °F 30.25 in Calm   1.0 mph 88% 0.00 in 283.00 W/m2
16:18 35.2 °F 32.3 °F 30.25 in Calm   1.0 mph 89% 0.00 in 265.00 W/m2
16:23 35.3 °F 32.4 °F 30.25 in Calm   1.0 mph 89% 0.00 in 248.00 W/m2
16:28 35.2 °F 32.0 °F 30.25 in Calm   1.0 mph 88% 0.00 in 230.00 W/m2
16:33 35.3 °F 31.8 °F 30.25 in Calm   1.0 mph 87% 0.00 in 207.00 W/m2
16:38 35.3 °F 31.5 °F 30.25 in Calm   1.0 mph 86% 0.00 in 188.00 W/m2
16:43 35.3 °F 31.5 °F 30.25 in NNE 1.0 mph 1.0 mph 86% 0.00 in 165.00 W/m2
16:48 35.4 °F 31.9 °F 30.25 in Calm   1.0 mph 87% 0.00 in 142.00 W/m2
16:53 35.3 °F 31.5 °F 30.25 in Calm   1.0 mph 86% 0.00 in 125.00 W/m2
16:58 35.3 °F 31.8 °F 30.25 in Calm   1.0 mph 87% 0.00 in 104.00 W/m2
17:03 35.2 °F 31.7 °F 30.25 in Calm   1.0 mph 87% 0.00 in 56.00 W/m2
17:08 35.1 °F 31.6 °F 30.25 in Calm   1.0 mph 87% 0.00 in 23.00 W/m2
17:13 35.0 °F 31.5 °F 30.25 in Calm   1.0 mph 87% 0.00 in 21.00 W/m2
17:18 34.9 °F 31.4 °F 30.25 in Calm   1.0 mph 87% 0.00 in 19.00 W/m2
17:23 34.8 °F 31.3 °F 30.25 in Calm   1.0 mph 87% 0.00 in 16.00 W/m2
17:28 34.7 °F 31.2 °F 30.25 in Calm     87% 0.00 in 14.00 W/m2
17:33 34.6 °F 31.1 °F 30.25 in Calm     87% 0.00 in 12.00 W/m2
17:38 34.5 °F 31.0 °F 30.25 in Calm     87% 0.00 in 11.00 W/m2
17:43 34.3 °F 30.8 °F 30.25 in Calm     87% 0.00 in 9.00 W/m2
17:48 34.2 °F 30.7 °F 30.25 in Calm     87% 0.00 in 7.00 W/m2
17:53 33.9 °F 30.5 °F 30.25 in Calm     87% 0.00 in 5.00 W/m2
17:58 33.7 °F 30.5 °F 30.25 in Calm     88% 0.00 in 0.00 W/m2
18:03 33.4 °F 30.2 °F 30.25 in Calm     88% 0.00 in 0.00 W/m2
18:08 33.2 °F 30.3 °F 30.25 in Calm     89% 0.00 in 0.00 W/m2
18:13 33.0 °F 30.1 °F 30.25 in Calm     89% 0.00 in 0.00 W/m2
18:18 32.7 °F 30.1 °F 30.25 in Calm     90% 0.00 in 0.00 W/m2
18:23 32.4 °F 29.8 °F 30.25 in Calm     90% 0.00 in 0.00 W/m2
18:28 32.1 °F 29.5 °F 30.25 in Calm     90% 0.00 in 0.00 W/m2
18:33 31.9 °F 29.3 °F 30.25 in Calm     90% 0.00 in 0.00 W/m2
18:38 31.7 °F 29.1 °F 30.25 in Calm     90% 0.00 in 0.00 W/m2
18:43 31.5 °F 28.9 °F 30.25 in Calm     90% 0.00 in 0.00 W/m2
18:48 31.4 °F 29.1 °F 30.25 in Calm     91% 0.00 in 0.00 W/m2
18:53 31.3 °F 29.0 °F 30.26 in Calm     91% 0.00 in 0.00 W/m2
18:58 31.2 °F 28.9 °F 30.26 in Calm     91% 0.00 in 0.00 W/m2
19:03 31.2 °F 28.9 °F 30.26 in Calm     91% 0.00 in 0.00 W/m2
19:08 31.1 °F 28.8 °F 30.26 in Calm     91% 0.00 in 0.00 W/m2
19:13 31.0 °F 28.7 °F 30.26 in Calm     91% 0.00 in 0.00 W/m2
19:18 31.0 °F 28.7 °F 30.26 in Calm     91% 0.00 in 0.00 W/m2
19:24 31.0 °F 28.7 °F 30.26 in Calm     91% 0.00 in 0.00 W/m2
19:29 31.0 °F 28.7 °F 30.26 in Calm     91% 0.00 in 0.00 W/m2
19:34 31.0 °F 28.7 °F 30.26 in Calm     91% 0.00 in 0.00 W/m2
19:39 31.0 °F 28.7 °F 30.26 in Calm     91% 0.00 in 0.00 W/m2
19:44 31.0 °F 29.0 °F 30.26 in Calm     92% 0.00 in 0.00 W/m2
19:49 31.0 °F 29.0 °F 30.27 in Calm     92% 0.00 in 0.00 W/m2
19:54 31.0 °F 29.0 °F 30.27 in Calm     92% 0.00 in 0.00 W/m2
19:59 31.0 °F 29.0 °F 30.26 in Calm     92% 0.00 in 0.00 W/m2
20:04 31.0 °F 29.0 °F 30.26 in Calm     92% 0.00 in 0.00 W/m2
20:09 31.0 °F 29.0 °F 30.26 in Calm     92% 0.00 in 0.00 W/m2
20:14 31.0 °F 29.0 °F 30.27 in Calm     92% 0.00 in 0.00 W/m2
20:19 31.0 °F 29.0 °F 30.27 in Calm     92% 0.00 in 0.00 W/m2
20:24 31.0 °F 29.0 °F 30.27 in Calm     92% 0.00 in 0.00 W/m2
20:29 31.0 °F 29.0 °F 30.27 in Calm     92% 0.00 in 0.00 W/m2
20:34 31.1 °F 29.0 °F 30.27 in Calm     92% 0.00 in 0.00 W/m2
20:39 31.0 °F 29.0 °F 30.27 in Calm     92% 0.00 in 0.00 W/m2
20:44 31.0 °F 29.0 °F 30.28 in Calm     92% 0.00 in 0.00 W/m2
20:49 31.1 °F 29.0 °F 30.28 in Calm     92% 0.00 in 0.00 W/m2
20:54 31.0 °F 29.0 °F 30.28 in Calm     92% 0.00 in 0.00 W/m2
20:59 31.0 °F 29.0 °F 30.28 in Calm     92% 0.00 in 0.00 W/m2
21:04 31.0 °F 29.0 °F 30.28 in Calm     92% 0.00 in 0.00 W/m2
21:09 31.0 °F 29.0 °F 30.28 in Calm     92% 0.00 in 0.00 W/m2
21:14 31.0 °F 29.0 °F 30.28 in Calm     92% 0.00 in 0.00 W/m2
21:19 30.9 °F 29.1 °F 30.28 in Calm     93% 0.00 in 0.00 W/m2
21:24 30.9 °F 29.1 °F 30.28 in Calm     93% 0.00 in 0.00 W/m2
21:29 30.9 °F 29.1 °F 30.28 in Calm     93% 0.00 in 0.00 W/m2
21:34 30.8 °F 29.0 °F 30.29 in Calm     93% 0.00 in 0.00 W/m2
21:39 30.8 °F 29.0 °F 30.29 in Calm     93% 0.00 in 0.00 W/m2
21:44 30.8 °F 29.0 °F 30.29 in Calm     93% 0.00 in 0.00 W/m2
21:49 30.8 °F 29.0 °F 30.29 in Calm     93% 0.00 in 0.00 W/m2
21:54 30.8 °F 29.0 °F 30.29 in Calm     93% 0.00 in 0.00 W/m2
21:59 30.8 °F 29.0 °F 30.29 in Calm     93% 0.00 in 0.00 W/m2
22:04 30.8 °F 29.0 °F 30.29 in Calm     93% 0.00 in 0.00 W/m2
22:09 30.7 °F 28.9 °F 30.30 in Calm     93% 0.00 in 0.00 W/m2
22:14 30.7 °F 28.9 °F 30.29 in Calm     93% 0.00 in 0.00 W/m2
22:19 30.7 °F 28.9 °F 30.30 in Calm     93% 0.00 in 0.00 W/m2
22:24 30.7 °F 28.9 °F 30.30 in Calm     93% 0.00 in 0.00 W/m2
22:29 30.6 °F 28.8 °F 30.29 in Calm     93% 0.00 in 0.00 W/m2
22:34 30.6 °F 28.8 °F 30.29 in Calm     93% 0.00 in 0.00 W/m2
22:39 30.5 °F 28.5 °F 30.29 in Calm     92% 0.00 in 0.00 W/m2
22:44 30.5 °F 28.5 °F 30.29 in Calm     92% 0.00 in 0.00 W/m2
22:49 30.4 °F 28.6 °F 30.29 in Calm     93% 0.00 in 0.00 W/m2
22:54 30.4 °F 28.6 °F 30.29 in Calm     93% 0.00 in 0.00 W/m2
22:59 30.3 °F 28.5 °F 30.29 in Calm     93% 0.00 in 0.00 W/m2
23:04 30.3 °F 28.5 °F 30.29 in Calm     93% 0.00 in 0.00 W/m2
23:09 30.3 °F 28.5 °F 30.29 in Calm     93% 0.00 in 0.00 W/m2
23:14 30.3 °F 28.5 °F 30.29 in Calm     93% 0.00 in 0.00 W/m2
23:19 30.3 °F 28.5 °F 30.29 in Calm     93% 0.00 in 0.00 W/m2
23:24 30.2 °F 28.4 °F 30.29 in Calm     93% 0.00 in 0.00 W/m2
23:29 30.2 °F 28.4 °F 30.30 in Calm     93% 0.00 in 0.00 W/m2
23:34 30.2 °F 28.4 °F 30.29 in Calm     93% 0.00 in 0.00 W/m2
23:39 30.1 °F 28.3 °F 30.29 in East 6.0 mph 8.0 mph 93% 0.00 in 0.00 W/m2
23:44 30.1 °F 28.3 °F 30.29 in Calm   1.0 mph 93% 0.00 in 0.00 W/m2
23:49 30.1 °F 28.1 °F 30.29 in East 5.0 mph 11.0 mph 92% 0.00 in 0.00 W/m2
23:54 30.1 °F 28.1 °F 30.29 in ESE 2.0 mph 9.0 mph 92% 0.00 in 0.00 W/m2
23:59 30.0 °F 28.2 °F 30.29 in Calm   8.0 mph 93% 0.00 in 0.00 W/m2
Foresthill Weather
 WU-history PHP script courtesy of   Juneau County Weather.
powered by Cumulus v1.9.3 (1059)
Ambient Weather VWS v14.00
Top Contact Website Map Copyright © 2007 - 2018 Foresthillweather.com Never base important decisions on this or any weather information obtained from the Internet